Tiempo atmosférico en la estación meteorológica de Medina Sidonia, Cádiz (90 m.)



Fecha
DESCASC
Temp. máxima en grados centígrados (hora)
DESCASC
Temp. mínima en grados centígrados (hora)
DESCASC
Temp. media en grados centígrados
DESCASC
Racha de viento máxima en m/sg (hora)
DESCASC
Velocidad máxima media en intervalos de 10 minutos(hora)
DESCASC
Precipitaciones diarias en mm
DESCASC
Precipitaciones de 00:00 a 06:00 en mm
DESCASC
Precipitaciones de 06:00 a 12:00 en mm
DESCASC
Precipitaciones de 12:00 a 18:00 en mm
DESCASC
Precipitaciones de 18:00 a 24:00 en mm
DESCASC
16-04-2019 25.8 (17:00) 8.5 (07:50) 17.1 10.56 (19:20) 7.78 (18:40) 0 0 0 0 0
15-04-2019 24.1 (13:40) 10.6 (05:00) 17.4 12.22 (17:10) 9.17 (17:10) 0 0 0 0 0
14-04-2019 27.3 (16:40) 7.5 (00:00) 17.4 5.83 (17:10) 3.89 (19:10) 0 0 0 0 0
13-04-2019 22.5 (14:10) 6.1 (00:00) 14.3 10.28 (17:40) 7.78 (17:40) 0 0 0 0 0
12-04-2019 22.6 (15:40) 8.2 (00:00) 15.4 9.72 (17:40) 6.94 (19:20) 0 0 0 0 0
11-04-2019 19.7 (15:00) 8.5 (00:00) 14.1 9.72 (20:20) 7.5 (20:20) 0 0 0 0 0
10-04-2019 17.7 (16:10) 8 (00:00) 12.9 13.89 (16:40) 8.33 (19:00) 0 0 0 0 0
09-04-2019 17.8 (15:40) 6.8 (00:00) 12.3 12.22 (15:50) 8.33 (17:40) 0 0 0 0 0
08-04-2019 18.8 (14:00) 11.8 (00:00) 15.3 13.33 (15:40) 8.89 (15:00) 1 0 0 0.4 0.6
07-04-2019 16.9 (13:50) 10.2 (00:00) 13.5 14.72 (19:00) 8.89 (13:20) 0.8 0.8 0 0 0
06-04-2019 14.9 (18:00) 9 (00:00) 11.9 14.72 (17:50) 9.72 (17:50) 9.8 2.8 3.8 3.2 0
05-04-2019 14.3 (15:40) 10.8 (00:00) 12.6 15 (16:50) 10.56 (16:50) 9.4 0 9.4 0 0
04-04-2019 17.7 (14:50) 7 (00:00) 12.4 10 (17:00) 7.5 (17:00) 0 0 0 0 0
03-04-2019 22.2 (15:40) 7.1 (00:00) 14.7 10.83 (18:20) 7.5 (17:30) 0 0 0 0 0
02-04-2019 21.7 (16:00) 9 (00:00) 15.4 6.67 (18:00) 5.28 (18:10) 0 0 0 0 0
01-04-2019 18.7 (15:20) 10.9 (00:00) 14.8 8.89 (10:10) 5.83 (16:00) 14.4 1.4 13 0 0
31-03-2019 20.3 (17:40) 12.2 (00:00) 16.2 10.56 (01:10) 6.67 (00:10) 0.4 0 0 0.4 0
30-03-2019 18.1 (13:00) 13.5 (00:00) 15.8 23.06 (00:10) 15.83 (00:20) 0 0 0 0 0
29-03-2019 18.6 (13:20) 13.2 (00:00) 15.9 22.22 (23:40) 15.83 (23:40) 0 0 0 0 0
28-03-2019 18.5 (15:30) 12.6 (00:00) 15.6 23.61 (23:20) 16.67 (14:30) 0 0 0 0 0
27-03-2019 18.2 (14:20) 13.3 (00:00) 15.8 23.06 (10:10) 16.11 (10:10) 0 0 0 0 0
26-03-2019 19.6 (14:20) 14.4 (00:00) 17 25.83 (22:00) 18.61 (13:10) 0 0 0 0 0
25-03-2019 20.4 (13:50) 13.6 (00:00) 17 20.28 (14:40) 14.72 (14:50) 0 0 0 0 0
24-03-2019 19.5 (14:50) 14 (00:00) 16.8 21.39 (13:00) 15.56 (12:50) 0 0 0 0 0
23-03-2019 19 (14:10) 13.1 (00:00) 16.1 23.61 (14:40) 16.39 (12:30) 0 0 0 0 0
22-03-2019 17.7 (13:00) 11.4 (00:00) 14.6 17.5 (11:30) 13.33 (13:50) 0 0 0 0 0
21-03-2019 16.7 (13:20) 9 (00:00) 12.9 19.17 (12:40) 13.33 (12:40) 0 0 0 0 0
20-03-2019 17.5 (14:40) 11.4 (00:00) 14.4 16.94 (15:40) 12.78 (16:10) 0 0 0 0 0
19-03-2019 22.6 (16:10) 9 (00:00) 15.8 8.61 (18:40) 4.72 (00:50) 0 0 0 0 0

Gráficas

Temp. máximas Temp. mínimas Temp. medias Precipitaciones Rachas de viento máximas Velocidades máximas media en intervalos de 10 minutos

Datos horarios

Fecha y hora oficial Temperatura (ºC) Velocidad del viento (km/h) Dirección del viento Racha (km/h) Dirección de racha Precipitación (mm) Presión (hPa) Tendencia (hPa) Humedad (%)
2019-04-17 23:00:00 14.6 7 Sur 12 Sur 0 -- -- 81
2019-04-17 22:00:00 14.8 4 Sur 12 Este 0 -- -- 79
2019-04-17 21:00:00 15.2 6 Este 17 Oeste 0 -- -- 79
2019-04-17 20:00:00 15.6 13 Oeste 44 Oeste 0 -- -- 72
2019-04-17 19:00:00 17.4 14 Oeste 37 Noroeste 0 -- -- 72
2019-04-17 18:00:00 18 18 Este 27 Este 0 -- -- 78
2019-04-17 17:00:00 17.7 18 Este 35 Este 0 -- -- 78
2019-04-17 16:00:00 18.7 28 Este 49 Sudeste 0 -- -- 75
2019-04-17 15:00:00 18.6 39 Sudeste 57 Sudeste 0 -- -- 75
2019-04-17 14:00:00 18.4 40 Sudeste 65 Este 0 -- -- 75
2019-04-17 13:00:00 18.8 42 Sudeste 63 Sudeste 0 -- -- 73
2019-04-17 12:00:00 18.3 41 Sudeste 73 Sudeste 0 -- -- 73
2019-04-17 11:00:00 17.3 49 Sudeste 66 Sudeste 0 -- -- 78
2019-04-17 10:00:00 16.8 46 Sudeste 81 Sudeste 0 -- -- 78
2019-04-17 09:00:00 16.4 48 Sudeste 74 Sudeste 0 -- -- 79
2019-04-17 08:00:00 15.9 48 Sudeste 70 Sudeste 0 -- -- 81
2019-04-17 07:00:00 15.6 47 Sudeste 76 Sudeste 0 -- -- 81
2019-04-17 06:00:00 15.6 41 Sudeste 60 Sudeste 0 -- -- 80
2019-04-17 05:00:00 15.7 32 Sudeste 52 Sudeste 0 -- -- 79
2019-04-17 04:00:00 15.7 36 Sudeste 56 Sudeste 0 -- -- 81
2019-04-17 03:00:00 15.8 26 Sudeste 44 Sudeste 0 -- -- 76
2019-04-17 02:00:00 16.1 31 Sudeste 44 Sudeste 0 -- -- 72
2019-04-17 01:00:00 16.4 23 Sudeste 40 Sudeste 0 -- -- 64
2019-04-17 00:00:00 16.5 23 Sudeste 38 Sudeste 0 -- -- 67
2019-04-16 23:00:00 16.7 22 Sudeste 35 Sudeste 0 -- -- 64
2019-04-16 22:00:00 17 23 Sudeste 36 Este 0 -- -- 65
2019-04-16 21:00:00 18.3 19 Sudeste 32 Sudeste 0 -- -- 53
2019-04-16 20:00:00 21 21 Este 38 Este 0 -- -- 47
2019-04-16 19:00:00 23.1 26 Este 36 Este 0 -- -- 42
2019-04-16 18:00:00 24.5 24 Este 33 Este 0 -- -- 39
2019-04-16 17:00:00 25.8 11 Sur 23 Sudeste 0 -- -- 45
2019-04-16 16:00:00 25.4 10 Sudeste 21 Sudeste 0 -- -- 43
2019-04-16 15:00:00 24.4 7 Sur 18 Sur 0 -- -- 41
2019-04-16 14:00:00 22.9 7 Sudeste 14 Sudeste 0 -- -- 47
2019-04-16 13:00:00 21.6 6 Este 12 Este 0 -- -- 53
2019-04-16 12:00:00 19.8 3 Sur 10 Este 0 -- -- 67
2019-04-16 11:00:00 17 5 Nordeste 12 Nordeste 0 -- -- 87
2019-04-16 10:00:00 14.1 2 Este 6 Nordeste 0 -- -- 100
2019-04-16 09:00:00 10 0 Calma 8 Oeste 0 -- -- 100
2019-04-16 08:00:00 9.4 5 Noroeste 8 Oeste 0 -- -- 100
2019-04-16 07:00:00 8.8 3 Oeste 6 Oeste 0 -- -- 97
2019-04-16 06:00:00 9.5 0 Calma 5 Oeste 0 -- -- 96
2019-04-16 05:00:00 10.4 3 Oeste 6 Oeste 0 -- -- 96
2019-04-16 04:00:00 11.5 2 Sur 5 Este 0 -- -- 96
2019-04-16 03:00:00 11.2 2 Oeste 9 Este 0 -- -- 95
2019-04-16 02:00:00 12.2 2 Oeste 8 Sur 0 -- -- 93
2019-04-16 01:00:00 13.2 5 Sudeste 21 Oeste 0 -- -- 91
2019-04-16 00:00:00 13.5 13 Oeste 28 Oeste 0 -- -- 90
2019-04-15 23:00:00 14.8 21 Oeste 27 Oeste 0 -- -- 86
2019-04-15 22:00:00 15.1 15 Oeste 30 Oeste 0 -- -- 82
2019-04-15 21:00:00 16.4 19 Oeste 44 Oeste 0 -- -- 77
2019-04-15 20:00:00 18.3 20 Oeste 37 Oeste 0 -- -- 74
2019-04-15 19:00:00 19.8 23 Oeste 42 Oeste 0 -- -- 68
2019-04-15 18:00:00 20.1 28 Oeste 44 Sudoeste 0 -- -- 64
2019-04-15 17:00:00 21.3 26 Oeste 38 Oeste 0 -- -- 59
2019-04-15 16:00:00 22.4 23 Oeste 31 Oeste 0 -- -- 56
2019-04-15 15:00:00 21.4 22 Oeste 37 Oeste 0 -- -- 65
2019-04-15 14:00:00 22.2 29 Oeste 37 Oeste 0 -- -- 58
2019-04-15 13:00:00 23.5 5 Sudeste 17 Oeste 0 -- -- 48
2019-04-15 12:00:00 21.5 10 Oeste 19 Sudoeste 0 -- -- 56
2019-04-15 11:00:00 20.2 15 Oeste 25 Oeste 0 -- -- 61
2019-04-15 10:00:00 16.1 2 Nordeste 5 Oeste 0 -- -- 87
2019-04-15 09:00:00 12.7 3 Oeste 8 Oeste 0 -- -- 81
2019-04-15 08:00:00 11.4 0 Calma 9 Noroeste 0 -- -- 77
2019-04-15 07:00:00 12.2 3 Noroeste 8 Noroeste 0 -- -- 74
2019-04-15 06:00:00 12.3 4 Noroeste 6 Oeste 0 -- -- 74
2019-04-15 05:00:00 10.6 5 Noroeste 7 Oeste 0 -- -- 84
2019-04-15 04:00:00 11.3 2 Noroeste 4 Oeste 0 -- -- 85
2019-04-15 03:00:00 12.2 3 Oeste 6 Oeste 0 -- -- 87
2019-04-15 02:00:00 13 4 Oeste 5 Noroeste 0 -- -- 87
2019-04-15 01:00:00 14.7 2 Oeste 4 Oeste 0 -- -- 85
2019-04-15 00:00:00 16 3 Noroeste 5 Oeste 0 -- -- 81
2019-04-14 23:00:00 17.6 0 Calma 5 Noroeste 0 -- -- 76
2019-04-14 22:00:00 19.1 0 Calma 8 Oeste 0 -- -- 69
2019-04-14 21:00:00 20.4 5 Oeste 15 Oeste 0 -- -- 63
2019-04-14 20:00:00 22.6 13 Oeste 20 Noroeste 0 -- -- 59
2019-04-14 19:00:00 24.9 13 Oeste 19 Oeste 0 -- -- 53
2019-04-14 18:00:00 26.6 10 Noroeste 21 Noroeste 0 -- -- 50
2019-04-14 17:00:00 27.2 5 Sudeste 15 Sudeste 0 -- -- 51
2019-04-14 16:00:00 26.7 6 Nordeste 15 Nordeste 0 -- -- 42
2019-04-14 15:00:00 25.5 5 Sudoeste 12 Noroeste 0 -- -- 41
2019-04-14 14:00:00 24.3 5 Este 11 Este 0 -- -- 44
2019-04-14 13:00:00 22.4 3 Este 11 Este 0 -- -- 55
2019-04-14 12:00:00 20.1 7 Este 12 Este 0 -- -- 65
2019-04-14 11:00:00 16.5 3 Este 6 Este 0 -- -- 82
2019-04-14 10:00:00 12.7 5 Este 8 Este 0 -- -- 96
2019-04-14 09:00:00 9.6 4 Este 7 Este 0 -- -- 99
2019-04-14 08:00:00 7.6 0 Calma 3 Este 0 -- -- 97
2019-04-14 07:00:00 8 0 Calma 5 Este 0 -- -- 98
2019-04-14 06:00:00 8.1 2 Noroeste 8 Noroeste 0 -- -- 96
2019-04-14 05:00:00 9.1 3 Este 5 Noroeste 0 -- -- 96
2019-04-14 04:00:00 9.5 3 Noroeste 4 Noroeste 0 -- -- 96
2019-04-14 03:00:00 10 0 Calma -- -- 0 -- -- 95
2019-04-14 02:00:00 10.4 3 Oeste 6 Oeste 0 -- -- 95
2019-04-14 01:00:00 11.3 0 Calma 8 Oeste 0 -- -- 93
2019-04-14 00:00:00 12.3 4 Oeste 6 Oeste 0 -- -- 93
2019-04-13 23:00:00 14 4 Oeste 11 Noroeste 0 -- -- 84
2019-04-13 22:00:00 15.3 4 Este 24 Oeste 0 -- -- 78
2019-04-13 21:00:00 16.6 19 Oeste 26 Oeste 0 -- -- 69
2019-04-13 20:00:00 19.3 17 Oeste 26 Oeste 0 -- -- 57
2019-04-13 19:00:00 20.8 17 Oeste 32 Oeste 0 -- -- 50
2019-04-13 18:00:00 20.8 24 Oeste 37 Oeste 0 -- -- 57
2019-04-13 17:00:00 21.3 24 Oeste 36 Oeste 0 -- -- 53
2019-04-13 16:00:00 21.5 24 Oeste 34 Sudoeste 0 -- -- 55
2019-04-13 15:00:00 21.7 18 Sudoeste 30 Sur 0 -- -- 54
2019-04-13 14:00:00 22.2 9 Oeste 18 Noroeste 0 -- -- 46
2019-04-13 13:00:00 20.8 7 Sudoeste 21 Oeste 0 -- -- 59
2019-04-13 12:00:00 18.8 9 Oeste 15 Sudeste 0 -- -- 66
2019-04-13 11:00:00 15.9 7 Sudeste 10 Sudeste 0 -- -- 86
2019-04-13 10:00:00 11.9 6 Este 8 Este 0 -- -- 96
2019-04-13 09:00:00 7.6 0 Calma 2 Este 0 -- -- 100
2019-04-13 08:00:00 6.1 0 Calma 2 Oeste 0 -- -- 98
2019-04-13 07:00:00 6.9 0 Calma 2 Oeste 0 -- -- 98
2019-04-13 06:00:00 7.2 2 Oeste 4 Este 0 -- -- 97
2019-04-13 05:00:00 7.5 0 Calma 4 Nordeste 0 -- -- 97
2019-04-13 04:00:00 8.2 0 Calma 3 Este 0 -- -- 96
2019-04-13 03:00:00 8.7 2 Este 4 Noroeste 0 -- -- 94
2019-04-13 02:00:00 9.7 4 Noroeste 6 Noroeste 0 -- -- 94
2019-04-13 01:00:00 10.3 0 Calma 5 Noroeste 0 -- -- 92
2019-04-13 00:00:00 11.5 2 Noroeste 6 Este 0 -- -- 87
2019-04-12 23:00:00 13.5 4 Nordeste 26 Oeste 0 -- -- 81
2019-04-12 22:00:00 15.2 21 Oeste 30 Oeste 0 -- -- 73
2019-04-12 21:00:00 16.4 17 Oeste 27 Oeste 0 -- -- 61
2019-04-12 20:00:00 19.2 19 Oeste 34 Oeste 0 -- -- 50
2019-04-12 19:00:00 20.5 23 Oeste 32 Oeste 0 -- -- 42
2019-04-12 18:00:00 21.3 22 Oeste 35 Oeste 0 -- -- 44
2019-04-12 17:00:00 22 13 Noroeste 26 Oeste 0 -- -- 48
2019-04-12 16:00:00 22.1 8 Oeste 19 Noroeste 0 -- -- 54
2019-04-12 15:00:00 22 10 Oeste 22 Oeste 0 -- -- 37
2019-04-12 14:00:00 21 8 Noroeste 18 Oeste 0 -- -- 37
2019-04-12 13:00:00 20.4 4 Sudeste 11 Sudeste 0 -- -- 64
2019-04-12 12:00:00 18.3 4 Nordeste 10 Este 0 -- -- 79
2019-04-12 11:00:00 15.7 5 Este 9 Sudeste 0 -- -- 99
2019-04-12 10:00:00 12.9 2 Este 5 Este 0 -- -- 100
2019-04-12 09:00:00 11.5 0 Calma 2 Nordeste 0 -- -- 100
2019-04-12 08:00:00 10.7 0 Calma 3 Sudoeste 0 -- -- 100
2019-04-12 07:00:00 10 0 Calma 3 Oeste 0 -- -- 100
2019-04-12 06:00:00 9.1 2 Noroeste 4 Noroeste 0 -- -- 99
2019-04-12 05:00:00 8.7 0 Calma 5 Oeste 0 -- -- 98
2019-04-12 04:00:00 9.3 0 Calma 4 Este 0 -- -- 97
2019-04-12 03:00:00 9.7 0 Calma 4 Oeste 0 -- -- 98
2019-04-12 02:00:00 10.1 0 Calma 4 Oeste 0 -- -- 96
2019-04-12 01:00:00 10.5 3 Este 5 Este 0 -- -- 94
2019-04-12 00:00:00 11.3 0 Calma 7 Este 0 -- -- 92
2019-04-11 23:00:00 12.6 2 Oeste 9 Sudeste 0 -- -- 91
2019-04-11 22:00:00 13.9 10 Sudoeste 35 Oeste 0 -- -- 87
2019-04-11 21:00:00 14.6 27 Oeste 35 Oeste 0 -- -- 80
2019-04-11 20:00:00 17 23 Oeste 32 Oeste 0 -- -- 63
2019-04-11 19:00:00 18.4 19 Oeste 28 Oeste 0 -- -- 58
2019-04-11 18:00:00 19.2 21 Oeste 32 Oeste 0 -- -- 53
2019-04-11 17:00:00 19.5 19 Noroeste 33 Noroeste 0 -- -- 56
2019-04-11 16:00:00 19.3 17 Oeste 28 Oeste 0 -- -- 59
2019-04-11 15:00:00 19.7 13 Oeste 28 Oeste 0 -- -- 55
2019-04-11 14:00:00 18.7 13 Oeste 24 Oeste 0 -- -- 56
2019-04-11 13:00:00 17.7 11 Noroeste 24 Noroeste 0 -- -- 60
2019-04-11 12:00:00 16.4 8 Noroeste 16 Noroeste 0 -- -- 66
2019-04-11 11:00:00 15 3 Sudeste 8 Nordeste 0 -- -- 74
2019-04-11 10:00:00 11.6 2 Sudeste 6 Este 0 -- -- 88
2019-04-11 09:00:00 9.6 0 Calma 11 Oeste 0 -- -- 93
2019-04-11 08:00:00 9 5 Noroeste 14 Noroeste 0 -- -- 90
2019-04-11 07:00:00 9.5 10 Noroeste 14 Noroeste 0 -- -- 88
2019-04-11 06:00:00 10.3 6 Norte 12 Noroeste 0 -- -- 86
2019-04-11 05:00:00 9.4 3 Norte 8 Norte 0 -- -- 95
2019-04-11 04:00:00 8.8 3 Oeste 6 Norte 0 -- -- 94
2019-04-11 03:00:00 11 3 Noroeste 7 Noroeste 0 -- -- 90
2019-04-11 02:00:00 11.9 3 Noroeste 19 Oeste 0 -- -- 90
2019-04-11 01:00:00 12.4 15 Oeste 24 Oeste 0 -- -- 87
2019-04-11 00:00:00 13.2 16 Oeste 25 Noroeste 0 -- -- 87
2019-04-10 23:00:00 13.2 13 Oeste 21 Oeste 0 -- -- 92
2019-04-10 22:00:00 13.3 17 Oeste 21 Oeste 0 -- -- 92
2019-04-10 21:00:00 14.3 14 Oeste 36 Oeste 0 -- -- 85
2019-04-10 20:00:00 16.1 20 Oeste 41 Oeste 0 -- -- 76
2019-04-10 19:00:00 16.7 30 Oeste 42 Oeste 0 -- -- 75
2019-04-10 18:00:00 17.5 24 Oeste 41 Noroeste 0 -- -- 68
2019-04-10 17:00:00 17.4 27 Oeste 50 Oeste 0 -- -- 64
2019-04-10 16:00:00 17.5 26 Oeste 40 Oeste 0 -- -- 60
2019-04-10 15:00:00 16.9 28 Oeste 41 Oeste 0 -- -- 66
2019-04-10 14:00:00 16.7 22 Oeste 37 Oeste 0 -- -- 66
2019-04-10 13:00:00 16.1 21 Noroeste 35 Oeste 0 -- -- 67
2019-04-10 12:00:00 15.3 14 Noroeste 28 Noroeste 0 -- -- 68
2019-04-10 11:00:00 13.3 12 Noroeste 21 Oeste 0 -- -- 79
2019-04-10 10:00:00 11.4 7 Noroeste 17 Oeste 0 -- -- 88
2019-04-10 09:00:00 9.4 7 Noroeste 14 Noroeste 0 -- -- 95
2019-04-10 08:00:00 8.1 2 Noroeste 8 Oeste 0 -- -- 95
2019-04-10 07:00:00 8.6 3 Norte 10 Noroeste 0 -- -- 94
2019-04-10 06:00:00 9.3 8 Noroeste 18 Noroeste 0 -- -- 92
2019-04-10 05:00:00 9.9 13 Noroeste 19 Noroeste 0 -- -- 90
2019-04-10 04:00:00 10.7 13 Noroeste 24 Oeste 0 -- -- 88
2019-04-10 03:00:00 10.6 11 Noroeste 21 Oeste 0 -- -- 90
2019-04-10 02:00:00 11.2 12 Oeste 18 Noroeste 0 -- -- 90
2019-04-10 01:00:00 12.6 10 Noroeste 20 Noroeste 0 -- -- 90
2019-04-10 00:00:00 13.1 14 Oeste 24 Oeste 0 -- -- 88
2019-04-09 23:00:00 12.9 16 Oeste 26 Oeste 0 -- -- 89
2019-04-09 22:00:00 12.9 14 Oeste 25 Oeste 0 -- -- 86
2019-04-09 21:00:00 14.1 16 Oeste 34 Oeste 0 -- -- 79
2019-04-09 20:00:00 15.4 21 Oeste 38 Oeste 0 -- -- 73
2019-04-09 19:00:00 16.6 23 Oeste 36 Oeste 0 -- -- 69
2019-04-09 18:00:00 17 25 Oeste 42 Oeste 0 -- -- 63
2019-04-09 17:00:00 16.3 26 Oeste 44 Oeste 0 -- -- 70
2019-04-09 16:00:00 17.7 25 Oeste 44 Oeste 0 -- -- 63
2019-04-09 15:00:00 17 22 Noroeste 42 Noroeste 0 -- -- 64
2019-04-09 14:00:00 17.7 22 Oeste 36 Oeste 0 -- -- 65
2019-04-09 13:00:00 15.6 23 Oeste 36 Noroeste 0 -- -- 70
2019-04-09 12:00:00 16.1 18 Oeste 29 Noroeste 0 -- -- 73
2019-04-09 11:00:00 14.9 19 Oeste 28 Noroeste 0 -- -- 79
2019-04-09 10:00:00 11.3 3 Este 8 Este 0 -- -- 99
2019-04-09 09:00:00 7.8 0 Calma 4 Oeste 0 -- -- 99
2019-04-09 08:00:00 7 0 Calma 4 Oeste 0 -- -- 97
2019-04-09 07:00:00 8 2 Oeste 4 Oeste 0 -- -- 97
2019-04-09 06:00:00 8.8 0 Calma 10 Oeste 0 -- -- 95
2019-04-09 05:00:00 9.4 4 Noroeste 8 Oeste 0 -- -- 95
2019-04-09 04:00:00 10 4 Noroeste 17 Oeste 0 -- -- 94
2019-04-09 03:00:00 11.4 12 Oeste 15 Oeste 0 -- -- 93
2019-04-09 02:00:00 11.3 12 Oeste 17 Oeste 0 -- -- 95
2019-04-09 01:00:00 11.7 11 Oeste 17 Oeste 0 -- -- 96
2019-04-09 00:00:00 12.2 11 Oeste 15 Oeste 0 -- -- 96
2019-04-08 23:00:00 11.8 6 Oeste 21 Sudoeste 0 -- -- 94
2019-04-08 22:00:00 13.1 18 Sudoeste 30 Oeste 0.2 -- -- 90
2019-04-08 21:00:00 14.6 17 Oeste 27 Oeste 0.2 -- -- 93
2019-04-08 20:00:00 14.9 14 Oeste 24 Sudoeste 0 -- -- 93
2019-04-08 19:00:00 14.9 14 Sudoeste 29 Oeste 0.2 -- -- 94
2019-04-08 18:00:00 15 11 Oeste 28 Oeste 0.4 -- -- 93
2019-04-08 17:00:00 15.1 18 Oeste 44 Sudoeste 0 -- -- 93
2019-04-08 16:00:00 18.3 32 Oeste 48 Oeste 0 -- -- 71
2019-04-08 15:00:00 18.3 32 Oeste 45 Oeste 0 -- -- 69
2019-04-08 14:00:00 18.8 26 Oeste 40 Oeste 0 -- -- 70
2019-04-08 13:00:00 17.3 25 Oeste 36 Sudoeste 0 -- -- 79
2019-04-08 12:00:00 17 26 Oeste 36 Oeste 0 -- -- 79
2019-04-08 11:00:00 16.6 18 Oeste 28 Oeste 0 -- -- 79
2019-04-08 10:00:00 15.5 15 Oeste 32 Oeste 0 -- -- 95
2019-04-08 09:00:00 14.5 6 Sudoeste 17 Sudoeste 0 -- -- 97
2019-04-08 08:00:00 13.5 11 Sudoeste 20 Sudoeste 0 -- -- 96
2019-04-08 07:00:00 13.8 6 Oeste 22 Oeste 0 -- -- 92
2019-04-08 06:00:00 14.7 8 Sudoeste 28 Oeste 0 -- -- 92
2019-04-08 05:00:00 15 14 Sudoeste 23 Sudoeste 0 -- -- 96
2019-04-08 04:00:00 14.6 13 Sudoeste 23 Sudoeste 0 -- -- 95
2019-04-08 03:00:00 14.2 14 Sudoeste 22 Sudoeste 0 -- -- 94
2019-04-08 02:00:00 14.7 14 Sudoeste 22 Sudoeste 0 -- -- 96
2019-04-08 01:00:00 15.1 14 Oeste 25 Sudoeste 0 -- -- 95
2019-04-08 00:00:00 15.1 11 Oeste 18 Oeste 0 -- -- 95
2019-04-07 23:00:00 14.7 10 Oeste 21 Oeste 0 -- -- 95
2019-04-07 22:00:00 15 15 Oeste 40 Oeste 0 -- -- 92
2019-04-07 21:00:00 15.7 20 Oeste 48 Oeste 0 -- -- 91
2019-04-07 20:00:00 16.1 28 Oeste 47 Oeste 0 -- -- 87
2019-04-07 19:00:00 16.4 30 Oeste 53 Oeste 0 -- -- 85
2019-04-07 18:00:00 16.1 24 Oeste 45 Oeste 0 -- -- 84
2019-04-07 17:00:00 15.7 21 Sudoeste 47 Sudoeste 0 -- -- 86
2019-04-07 16:00:00 16.3 22 Oeste 49 Oeste 0 -- -- 78
2019-04-07 15:00:00 16.7 23 Oeste 40 Oeste 0 -- -- 75
2019-04-07 14:00:00 16.8 30 Oeste 47 Oeste 0 -- -- 69
2019-04-07 13:00:00 16.1 26 Oeste 41 Oeste 0 -- -- 69
2019-04-07 12:00:00 14.6 25 Oeste 37 Oeste 0 -- -- 84
2019-04-07 11:00:00 14.5 21 Oeste 42 Oeste 0 -- -- 74
2019-04-07 10:00:00 13.7 14 Oeste 26 Sudoeste 0 -- -- 77
2019-04-07 09:00:00 12.1 10 Oeste 16 Oeste 0 -- -- 87
2019-04-07 08:00:00 11.2 7 Sudoeste 13 Sudoeste 0 -- -- 89
2019-04-07 07:00:00 10.5 6 Oeste 12 Sudoeste 0 -- -- 90
2019-04-07 06:00:00 10.8 8 Sudoeste 13 Sudoeste 0 -- -- 90
2019-04-07 05:00:00 10.3 8 Oeste 14 Oeste 0 -- -- 90
2019-04-07 04:00:00 12 11 Oeste 40 Oeste 0.6 -- -- 82
2019-04-07 03:00:00 11.3 9 Oeste 21 Oeste 0 -- -- 90
2019-04-07 02:00:00 12 14 Oeste 33 Oeste 0.2 -- -- 86
2019-04-07 01:00:00 12.8 15 Oeste 33 Oeste 0 -- -- 80
2019-04-07 00:00:00 13.1 24 Oeste 36 Oeste 0 -- -- 74
2019-04-06 23:00:00 13 22 Oeste 32 Noroeste 0 -- -- 78
2019-04-06 22:00:00 12.8 18 Oeste 46 Noroeste 0 -- -- 77
2019-04-06 21:00:00 13.2 21 Oeste 46 Oeste 0 -- -- 75
2019-04-06 20:00:00 14 25 Oeste 49 Oeste 0 -- -- 73
2019-04-06 19:00:00 14.5 30 Oeste 51 Oeste 0 -- -- 71
2019-04-06 18:00:00 14.9 33 Oeste 53 Oeste 0 -- -- 71
2019-04-06 17:00:00 13.6 24 Oeste 48 Oeste 0.2 -- -- 81
2019-04-06 16:00:00 13.1 22 Oeste 48 Oeste 1.2 -- -- 91
2019-04-06 15:00:00 13.3 17 Sudoeste 35 Oeste 0 -- -- 87
2019-04-06 14:00:00 14 22 Oeste 31 Oeste 1 -- -- 78
2019-04-06 13:00:00 12.4 17 Oeste 36 Sudoeste 0.8 -- -- 87
2019-04-06 12:00:00 13.1 19 Oeste 27 Oeste 0 -- -- 84
2019-04-06 11:00:00 12 9 Oeste 30 Noroeste 0.4 -- -- 86
2019-04-06 10:00:00 10.6 0 Calma 21 Noroeste 0 -- -- 91
2019-04-06 09:00:00 10.2 8 Noroeste 26 Oeste 2.4 -- -- 87
2019-04-06 08:00:00 9 4 Sudoeste 19 Oeste 0.4 -- -- 92
2019-04-06 07:00:00 9.6 10 Oeste 19 Noroeste 0.6 -- -- 86
2019-04-06 06:00:00 9.7 10 Oeste 33 Oeste 0.4 -- -- 85
2019-04-06 05:00:00 10 21 Oeste 36 Noroeste 0.4 -- -- 86
2019-04-06 04:00:00 9.8 8 Noroeste 15 Oeste 1.6 -- -- 90
2019-04-06 03:00:00 9.5 14 Oeste 33 Noroeste 0 -- -- 85
2019-04-06 02:00:00 10.2 17 Oeste 32 Sudoeste 0.4 -- -- 84
2019-04-06 01:00:00 10.8 10 Noroeste 22 Oeste 0 -- -- 74
2019-04-06 00:00:00 11.5 14 Noroeste 33 Oeste 0 -- -- 69
2019-04-05 23:00:00 12.5 22 Oeste 45 Oeste 0 -- -- 67
2019-04-05 22:00:00 12.1 18 Oeste 37 Oeste 0 -- -- 69
2019-04-05 21:00:00 12.4 28 Oeste 45 Noroeste 0 -- -- 68
2019-04-05 20:00:00 13.2 26 Oeste 50 Oeste 0 -- -- 68
2019-04-05 19:00:00 14 32 Oeste 53 Oeste 0 -- -- 58
2019-04-05 18:00:00 13.8 33 Oeste 53 Oeste 0 -- -- 60
2019-04-05 17:00:00 13.7 35 Oeste 54 Oeste 0 -- -- 58
2019-04-05 16:00:00 14.2 32 Oeste 52 Oeste 0 -- -- 60
2019-04-05 15:00:00 13.8 33 Oeste 50 Oeste 0 -- -- 67
2019-04-05 14:00:00 13.6 26 Noroeste 47 Noroeste 0 -- -- 64
2019-04-05 13:00:00 12.3 24 Noroeste 50 Noroeste 0 -- -- 80
2019-04-05 12:00:00 12.2 21 Oeste 47 Oeste 2 -- -- 86
2019-04-05 11:00:00 12.2 9 Sur 22 Sudoeste 0.2 -- -- 94
2019-04-05 10:00:00 11.5 17 Sudoeste 29 Oeste 1 -- -- 95
2019-04-05 09:00:00 11 11 Sudoeste 42 Oeste 3 -- -- 96
2019-04-05 08:00:00 11.8 31 Oeste 45 Sudoeste 1.4 -- -- 88
2019-04-05 07:00:00 12.5 12 Sudoeste 34 Sudoeste 1.8 -- -- 92
2019-04-05 06:00:00 13.2 14 Sudoeste 33 Sudoeste 0 -- -- 79
2019-04-05 05:00:00 13 18 Sudoeste 33 Oeste 0 -- -- 77
2019-04-05 04:00:00 11.5 4 Oeste 12 Noroeste 0 -- -- 82
2019-04-05 03:00:00 11.9 9 Oeste 28 Noroeste 0 -- -- 82
2019-04-05 02:00:00 11.7 7 Oeste 18 Oeste 0 -- -- 78
2019-04-05 01:00:00 11.7 10 Oeste 23 Sudoeste 0 -- -- 74
2019-04-05 00:00:00 11.8 10 Oeste 16 Oeste 0 -- -- 74
2019-04-04 23:00:00 10.1 5 Oeste 9 Sudoeste 0 -- -- 72
2019-04-04 22:00:00 10 5 Oeste 14 Sudoeste 0 -- -- 70
2019-04-04 21:00:00 11.9 9 Sudoeste 26 Oeste 0 -- -- 63
2019-04-04 20:00:00 14.2 22 Oeste 35 Oeste 0 -- -- 53
2019-04-04 19:00:00 15.6 23 Oeste 36 Oeste 0 -- -- 48
2019-04-04 18:00:00 16.1 22 Oeste 35 Oeste 0 -- -- 49
2019-04-04 17:00:00 16.5 27 Oeste 36 Sudoeste 0 -- -- 59
2019-04-04 16:00:00 17.2 17 Sudoeste 30 Oeste 0 -- -- 49
2019-04-04 15:00:00 17.6 14 Sudoeste 31 Oeste 0 -- -- 41
2019-04-04 14:00:00 17.2 18 Oeste 31 Oeste 0 -- -- 45
2019-04-04 13:00:00 16.7 14 Oeste 24 Oeste 0 -- -- 45
2019-04-04 12:00:00 15.9 3 Este 8 Este 0 -- -- 57
2019-04-04 11:00:00 13 3 Sudeste 8 Este 0 -- -- 66
2019-04-04 10:00:00 10.1 3 Este 6 Este 0 -- -- 75
2019-04-04 09:00:00 7 4 Este 13 Noroeste 0 -- -- 86
2019-04-04 08:00:00 7.8 6 Noroeste 14 Noroeste 0 -- -- 79
2019-04-04 07:00:00 8.3 6 Noroeste 17 Oeste 0 -- -- 78
2019-04-04 06:00:00 8.6 4 Noroeste 17 Noroeste 0 -- -- 75
2019-04-04 05:00:00 9.6 12 Noroeste 21 Oeste 0 -- -- 71
2019-04-04 04:00:00 10.2 12 Noroeste 25 Oeste 0 -- -- 69
2019-04-04 03:00:00 11.2 17 Oeste 26 Noroeste 0 -- -- 68
2019-04-04 02:00:00 11.6 12 Oeste 22 Noroeste 0 -- -- 75
2019-04-04 01:00:00 12.2 13 Oeste 21 Oeste 0 -- -- 89
2019-04-04 00:00:00 13.4 15 Oeste 24 Oeste 0 -- -- 87
2019-04-03 23:00:00 12.2 17 Oeste 20 Oeste 0 -- -- 90
2019-04-03 22:00:00 12.5 15 Oeste 24 Oeste 0 -- -- 85
2019-04-03 21:00:00 15 17 Oeste 25 Oeste 0 -- -- 70
2019-04-03 20:00:00 18.1 17 Oeste 34 Oeste 0 -- -- 54
2019-04-03 19:00:00 19.2 27 Oeste 39 Oeste 0 -- -- 45
2019-04-03 18:00:00 20.7 26 Oeste 37 Oeste 0 -- -- 45
2019-04-03 17:00:00 22 19 Noroeste 32 Oeste 0 -- -- 44
2019-04-03 16:00:00 22.2 17 Noroeste 34 Noroeste 0 -- -- 52
2019-04-03 15:00:00 21.9 12 Noroeste 27 Oeste 0 -- -- 52
2019-04-03 14:00:00 21 13 Oeste 26 Oeste 0 -- -- 61
2019-04-03 13:00:00 20.2 13 Oeste 20 Oeste 0 -- -- 60
2019-04-03 12:00:00 19 9 Noroeste 19 Oeste 0 -- -- 68
2019-04-03 11:00:00 15.8 4 Oeste 11 Noroeste 0 -- -- 93
2019-04-03 10:00:00 11.3 0 Calma 4 Este 0 -- -- 100
2019-04-03 09:00:00 7.8 0 Calma 2 Oeste 0 -- -- 100
2019-04-03 08:00:00 7.4 0 Calma 5 Noroeste 0 -- -- 100
2019-04-03 07:00:00 7.3 0 Calma 4 Noroeste 0 -- -- 98
2019-04-03 06:00:00 8 0 Calma 3 Oeste 0 -- -- 98
2019-04-03 05:00:00 8.9 0 Calma 3 Noroeste 0 -- -- 97
2019-04-03 04:00:00 9.9 3 Noroeste 4 Noroeste 0 -- -- 95
2019-04-03 03:00:00 10.9 3 Noroeste 7 Oeste 0 -- -- 95
2019-04-03 02:00:00 11 3 Oeste 8 Noroeste 0 -- -- 93
2019-04-03 01:00:00 12.2 2 Noroeste 5 Oeste 0 -- -- 92
2019-04-03 00:00:00 13.3 3 Noroeste 6 Oeste 0 -- -- 87
2019-04-02 23:00:00 14.6 0 Calma 10 Sudoeste 0 -- -- 84
2019-04-02 22:00:00 15.7 5 Sudoeste 22 Oeste 0 -- -- 80
2019-04-02 21:00:00 17.1 9 Noroeste 16 Oeste 0 -- -- 76
2019-04-02 20:00:00 18.3 12 Oeste 18 Oeste 0 -- -- 73
2019-04-02 19:00:00 20.4 12 Oeste 24 Oeste 0 -- -- 63
2019-04-02 18:00:00 20 15 Noroeste 24 Noroeste 0 -- -- 65
2019-04-02 17:00:00 21.1 5 Noroeste 18 Noroeste 0 -- -- 51
2019-04-02 16:00:00 21.7 7 Norte 15 Norte 0 -- -- 48
2019-04-02 15:00:00 20.8 4 Noroeste 15 Oeste 0 -- -- 55
2019-04-02 14:00:00 20.6 6 Norte 12 Nordeste 0 -- -- 55
2019-04-02 13:00:00 19.6 4 Este 12 Este 0 -- -- 60
2019-04-02 12:00:00 16.5 7 Nordeste 13 Nordeste 0 -- -- 95
2019-04-02 11:00:00 14.1 4 Nordeste 8 Nordeste 0 -- -- 100
2019-04-02 10:00:00 10.8 2 Oeste 6 Este 0 -- -- 100
2019-04-02 09:00:00 10 3 Noroeste 5 Noroeste 0 -- -- 100
2019-04-02 08:00:00 9.2 3 Oeste 6 Este 0 -- -- 100
2019-04-02 07:00:00 10.1 0 Calma 3 Noroeste 0 -- -- 100
2019-04-02 06:00:00 9.7 0 Calma 5 Oeste 0 -- -- 100
2019-04-02 05:00:00 9.3 4 Nordeste 5 Nordeste 0 -- -- 100
2019-04-02 04:00:00 9.5 0 Calma 4 Este 0 -- -- 100
2019-04-02 03:00:00 9.6 0 Calma 5 Oeste 0 -- -- 99
2019-04-02 02:00:00 10.6 0 Calma 5 Noroeste 0 -- -- 98
2019-04-02 01:00:00 10.4 3 Oeste 4 Oeste 0 -- -- 97
2019-04-02 00:00:00 10.9 2 Oeste 4 Noroeste 0 -- -- 96
2019-04-01 23:00:00 11.9 3 Oeste 5 Noroeste 0 -- -- 94
2019-04-01 22:00:00 13.2 3 Oeste 6 Oeste 0 -- -- 92
2019-04-01 21:00:00 15.3 0 Calma 16 Oeste 0 -- -- 85
2019-04-01 20:00:00 16.9 8 Sudoeste 25 Oeste 0 -- -- 78
2019-04-01 19:00:00 17.9 17 Sudoeste 28 Sudoeste 0 -- -- 69
2019-04-01 18:00:00 18.5 15 Sudoeste 30 Sudoeste 0 -- -- 70
2019-04-01 17:00:00 18.5 15 Sudoeste 31 Oeste 0 -- -- 71
2019-04-01 16:00:00 18.5 21 Sudoeste 32 Sudoeste 0 -- -- 73
2019-04-01 15:00:00 18.5 18 Sudoeste 32 Sudoeste 0 -- -- 68
2019-04-01 14:00:00 18 18 Sudoeste 31 Sur 0 -- -- 72
2019-04-01 13:00:00 16.9 14 Sudoeste 23 Sur 0 -- -- 81
2019-04-01 12:00:00 16 6 Sudoeste 18 Sudoeste 0.8 -- -- 92
2019-04-01 11:00:00 14 8 Sur 32 Sur 2.6 -- -- 96
2019-04-01 10:00:00 13.9 11 Sudoeste 22 Sur 0.2 -- -- 95
2019-04-01 09:00:00 13.7 6 Sur 15 Sur 0 -- -- 97
2019-04-01 08:00:00 13.4 6 Sur 12 Oeste 1.4 -- -- 95
2019-04-01 07:00:00 13.1 5 Nordeste 21 Sudoeste 8 -- -- 95
2019-04-01 06:00:00 13.4 12 Sur 25 Sur 1 -- -- 92
2019-04-01 05:00:00 14.8 11 Sur 22 Sur 0.4 -- -- 96
2019-04-01 04:00:00 14.6 5 Sur 20 Sudoeste 0 -- -- 97
2019-04-01 03:00:00 13.9 8 Sur 18 Sur 0 -- -- 99
2019-04-01 02:00:00 12.7 4 Este 6 Este 0 -- -- 98
2019-04-01 01:00:00 13.1 3 Este 6 Sur 0 -- -- 96
2019-04-01 00:00:00 13.9 4 Sudeste 8 Sur 0 -- -- 93
2019-03-31 23:00:00 15.2 5 Sur 13 Sur 0 -- -- 90
2019-03-31 22:00:00 15.9 6 Sudoeste 13 Sudoeste 0 -- -- 90
2019-03-31 21:00:00 15.9 8 Sudoeste 20 Sudoeste 0 -- -- 88
2019-03-31 20:00:00 17.4 13 Oeste 26 Sudoeste 0 -- -- 78
2019-03-31 19:00:00 19 15 Sudoeste 28 Oeste 0 -- -- 70
2019-03-31 18:00:00 20.2 15 Sudoeste 27 Sudoeste 0 -- -- 66
2019-03-31 17:00:00 20 12 Sudoeste 25 Sudoeste 0 -- -- 66
2019-03-31 16:00:00 16.6 12 Oeste 22 Oeste 0.4 -- -- 91
2019-03-31 15:00:00 19.4 5 Sudoeste 13 Sudoeste 0 -- -- 68
2019-03-31 14:00:00 19.6 5 Sudoeste 17 Este 0 -- -- 65
2019-03-31 13:00:00 18.7 10 Sudeste 26 Este 0 -- -- 69
2019-03-31 12:00:00 17.3 16 Sudeste 24 Sudeste 0 -- -- 77
2019-03-31 11:00:00 15 19 Sudeste 26 Sudeste 0 -- -- 84
2019-03-31 10:00:00 13.6 12 Sudeste 18 Este 0 -- -- 92
2019-03-31 09:00:00 12.5 14 Este 22 Este 0 -- -- 91
2019-03-31 08:00:00 12.3 14 Este 24 Sudeste 0 -- -- 89
2019-03-31 07:00:00 12.6 13 Sudeste 22 Sudeste 0 -- -- 90
2019-03-31 06:00:00 13.5 15 Este 27 Este 0 -- -- 89
2019-03-31 05:00:00 13.8 15 Este 27 Este 0 -- -- 87
2019-03-31 03:00:00 14.2 15 Sudeste 38 Este 0 -- -- 87
2019-03-31 01:00:00 14.2 24 Sudeste 37 Sudeste 0 -- -- 86
2019-03-31 00:00:00 14.3 24 Sudeste 49 Este 0 -- -- 84
2019-03-30 23:00:00 14.5 31 Este 45 Este 0 -- -- 82
2019-03-30 22:00:00 14.5 30 Sudeste 48 Sudeste 0 -- -- 82
2019-03-30 21:00:00 14.4 32 Sudeste 43 Sudeste 0 -- -- 82
2019-03-30 20:00:00 14.5 29 Este 52 Sudeste 0 -- -- 83
2019-03-30 19:00:00 14.8 39 Sudeste 57 Este 0 -- -- 81
2019-03-30 18:00:00 15.3 42 Este 61 Este 0 -- -- 78
2019-03-30 17:00:00 15.9 42 Este 64 Este 0 -- -- 76
2019-03-30 16:00:00 16.2 49 Este 70 Sudeste 0 -- -- 75
2019-03-30 15:00:00 17.4 48 Este 68 Este 0 -- -- 70
2019-03-30 14:00:00 17.2 50 Este 72 Sudeste 0 -- -- 69
2019-03-30 13:00:00 18.1 47 Este 69 Este 0 -- -- 68
2019-03-30 12:00:00 17.7 45 Este 71 Este 0 -- -- 66
2019-03-30 11:00:00 16.8 51 Este 71 Este 0 -- -- 68
2019-03-30 10:00:00 15.9 54 Este 73 Este 0 -- -- 70
2019-03-30 09:00:00 15 46 Este 63 Este 0 -- -- 74
2019-03-30 08:00:00 13.9 45 Este 68 Este 0 -- -- 77
2019-03-30 07:00:00 13.7 45 Este 77 Este 0 -- -- 76
2019-03-30 06:00:00 13.6 43 Este 76 Sudeste 0 -- -- 77
2019-03-30 05:00:00 13.6 43 Este 65 Este 0 -- -- 77
2019-03-30 04:00:00 13.8 43 Este 71 Este 0 -- -- 76
2019-03-30 03:00:00 13.9 47 Este 74 Este 0 -- -- 75
2019-03-30 02:00:00 13.8 49 Este 72 Sudeste 0 -- -- 74
2019-03-30 01:00:00 13.8 47 Este 83 Este 0 -- -- 73
2019-03-30 00:00:00 13.9 50 Este 80 Este 0 -- -- 74
2019-03-29 23:00:00 13.9 47 Este 70 Este 0 -- -- 76
2019-03-29 22:00:00 13.8 42 Este 63 Este 0 -- -- 78
2019-03-29 21:00:00 13.9 44 Este 65 Este 0 -- -- 77
2019-03-29 20:00:00 14.1 40 Este 65 Este 0 -- -- 75
2019-03-29 19:00:00 15.3 41 Este 66 Este 0 -- -- 70
2019-03-29 18:00:00 16 47 Este 68 Este 0 -- -- 68
2019-03-29 17:00:00 17.6 42 Este 66 Este 0 -- -- 63
2019-03-29 16:00:00 17.2 46 Este 67 Este 0 -- -- 63
2019-03-29 15:00:00 17.4 49 Este 68 Este 0 -- -- 64
2019-03-29 14:00:00 17.4 51 Este 71 Este 0 -- -- 61
2019-03-29 13:00:00 18.1 49 Sudeste 67 Este 0 -- -- 60
2019-03-29 12:00:00 17.3 48 Este 70 Este 0 -- -- 64
2019-03-29 11:00:00 16.6 51 Este 71 Este 0 -- -- 68
2019-03-29 10:00:00 15.5 47 Este 67 Este 0 -- -- 72
2019-03-29 09:00:00 14.8 44 Este 71 Este 0 -- -- 73
2019-03-29 08:00:00 13.7 45 Este 71 Este 0 -- -- 75
2019-03-29 07:00:00 13.4 45 Este 70 Sudeste 0 -- -- 76
2019-03-29 06:00:00 13.4 47 Este 69 Este 0 -- -- 76
2019-03-29 05:00:00 13.4 43 Este 63 Este 0 -- -- 76
2019-03-29 04:00:00 13.3 44 Sudeste 64 Sudeste 0 -- -- 75
2019-03-29 03:00:00 13.3 46 Este 74 Este 0 -- -- 73
2019-03-29 02:00:00 13.4 50 Este 75 Este 0 -- -- 71
2019-03-29 01:00:00 13.4 47 Este 74 Este 0 -- -- 71
2019-03-29 00:00:00 13.7 52 Este 85 Este 0 -- -- 66
2019-03-28 23:00:00 13.8 51 Este 76 Este 0 -- -- 68
2019-03-28 22:00:00 13.8 54 Este 79 Este 0 -- -- 70
2019-03-28 21:00:00 13.9 49 Este 71 Sudeste 0 -- -- 69
2019-03-28 20:00:00 14.1 43 Este 68 Este 0 -- -- 68
2019-03-28 19:00:00 15.3 40 Este 67 Este 0 -- -- 65
2019-03-28 18:00:00 16.7 44 Este 74 Este 0 -- -- 58
2019-03-28 17:00:00 17.4 53 Este 80 Sudeste 0 -- -- 55
2019-03-28 16:00:00 18.1 49 Este 78 Este 0 -- -- 55
2019-03-28 15:00:00 18.3 55 Este 81 Sudeste 0 -- -- 52
2019-03-28 14:00:00 18.1 53 Este 77 Este 0 -- -- 54
2019-03-28 13:00:00 17.8 55 Este 77 Este 0 -- -- 56
2019-03-28 12:00:00 17.4 49 Este 76 Este 0 -- -- 55
2019-03-28 11:00:00 16.9 48 Este 76 Sudeste 0 -- -- 56
2019-03-28 10:00:00 15.7 49 Este 69 Sudeste 0 -- -- 60
2019-03-28 09:00:00 14.5 47 Este 65 Este 0 -- -- 64
2019-03-28 08:00:00 13.2 35 Este 56 Este 0 -- -- 66
2019-03-28 07:00:00 12.7 33 Este 58 Este 0 -- -- 70
2019-03-28 06:00:00 12.9 40 Este 58 Este 0 -- -- 69
2019-03-28 05:00:00 12.8 36 Este 53 Este 0 -- -- 71
2019-03-28 04:00:00 13 41 Este 61 Este 0 -- -- 70
2019-03-28 03:00:00 13.1 38 Este 64 Este 0 -- -- 68
2019-03-28 02:00:00 13.3 42 Este 65 Sudeste 0 -- -- 67
2019-03-28 01:00:00 13.6 37 Sudeste 61 Este 0 -- -- 72
2019-03-28 00:00:00 13.7 41 Este 60 Este 0 -- -- 67
2019-03-27 23:00:00 13.4 36 Este 55 Sudeste 0 -- -- 71
2019-03-27 22:00:00 13.6 34 Este 51 Sudeste 0 -- -- 67
2019-03-27 21:00:00 13.5 26 Este 51 Este 0 -- -- 67
2019-03-27 20:00:00 13.9 35 Este 54 Este 0 -- -- 62
2019-03-27 19:00:00 14.9 35 Este 55 Este 0 -- -- 58
2019-03-27 18:00:00 16.2 44 Este 60 Sudeste 0 -- -- 55
2019-03-27 17:00:00 16.8 48 Este 66 Este 0 -- -- 53
2019-03-27 16:00:00 17.9 45 Este 70 Este 0 -- -- 48
2019-03-27 15:00:00 18 50 Este 71 Este 0 -- -- 46
2019-03-27 14:00:00 18 45 Este 68 Este 0 -- -- 47
2019-03-27 13:00:00 16.6 51 Este 75 Este 0 -- -- 47
2019-03-27 12:00:00 16.6 53 Este 72 Este 0 -- -- 51
2019-03-27 11:00:00 16.6 50 Este 83 Sudeste 0 -- -- 56
2019-03-27 10:00:00 15.4 53 Este 75 Este 0 -- -- 60
2019-03-27 09:00:00 14.3 39 Sudeste 69 Sudeste 0 -- -- 67
2019-03-27 08:00:00 13.6 53 Sudeste 77 Sudeste 0 -- -- 69
2019-03-27 07:00:00 13.7 47 Sudeste 78 Sudeste 0 -- -- 65
2019-03-27 06:00:00 13.8 42 Sudeste 74 Este 0 -- -- 62
2019-03-27 05:00:00 13.9 30 Sudeste 68 Sudeste 0 -- -- 62
2019-03-27 04:00:00 14.1 41 Sudeste 64 Este 0 -- -- 62
2019-03-27 03:00:00 14.2 39 Sudeste 65 Sudeste 0 -- -- 61
2019-03-27 02:00:00 14.5 40 Sudeste 72 Este 0 -- -- 60
2019-03-27 01:00:00 14.7 44 Sudeste 76 Este 0 -- -- 62
2019-03-27 00:00:00 14.9 51 Sudeste 81 Este 0 -- -- 61
2019-03-26 23:00:00 14.8 51 Este 87 Este 0 -- -- 70
2019-03-26 22:00:00 14.5 62 Sudeste 93 Este 0 -- -- 78
2019-03-26 21:00:00 15.6 51 Este 87 Este 0 -- -- 70
2019-03-26 20:00:00 15.7 56 Este 81 Este 0 -- -- 71
2019-03-26 19:00:00 16.3 45 Este 69 Este 0 -- -- 68
2019-03-26 18:00:00 17 44 Este 74 Sudeste 0 -- -- 61
2019-03-26 17:00:00 17 56 Este 82 Este 0 -- -- 60
2019-03-26 16:00:00 18 57 Este 87 Este 0 -- -- 52
2019-03-26 15:00:00 18.8 63 Este 89 Este 0 -- -- 46
2019-03-26 14:00:00 18.7 59 Este 84 Sudeste 0 -- -- 46
2019-03-26 13:00:00 18.4 62 Este 87 Este 0 -- -- 51
2019-03-26 12:00:00 18.8 51 Este 82 Este 0 -- -- 53
2019-03-26 11:00:00 19.1 55 Este 83 Este 0 -- -- 54
2019-03-26 10:00:00 18.3 56 Este 82 Este 0 -- -- 56
2019-03-26 09:00:00 17 52 Este 78 Este 0 -- -- 59
2019-03-26 08:00:00 16 42 Este 69 Sudeste 0 -- -- 63
2019-03-26 07:00:00 15.9 49 Este 69 Este 0 -- -- 64
2019-03-26 06:00:00 16 44 Este 67 Este 0 -- -- 65
2019-03-26 05:00:00 16 45 Este 75 Este 0 -- -- 67
2019-03-26 04:00:00 16 49 Este 72 Este 0 -- -- 67
2019-03-26 03:00:00 16.2 46 Este 71 Este 0 -- -- 68
2019-03-26 02:00:00 16.3 43 Este 65 Sudeste 0 -- -- 66
2019-03-26 01:00:00 16.3 41 Este 63 Este 0 -- -- 67
2019-03-26 00:00:00 16.2 39 Este 63 Sudeste 0 -- -- 67
2019-03-25 23:00:00 15.9 35 Este 58 Este 0 -- -- 69
2019-03-25 22:00:00 15.9 36 Este 62 Este 0 -- -- 69
2019-03-25 21:00:00 15.8 40 Este 62 Este 0 -- -- 70
2019-03-25 20:00:00 15.9 30 Este 54 Este 0 -- -- 69
2019-03-25 19:00:00 17.2 36 Este 59 Este 0 -- -- 65
2019-03-25 18:00:00 18.7 41 Este 63 Este 0 -- -- 60
2019-03-25 17:00:00 19.4 47 Este 68 Este 0 -- -- 59
2019-03-25 16:00:00 19.8 48 Este 71 Este 0 -- -- 59
2019-03-25 15:00:00 20.1 50 Este 73 Este 0 -- -- 57
2019-03-25 14:00:00 20.3 47 Este 65 Este 0 -- -- 56
2019-03-25 13:00:00 20 45 Este 59 Este 0 -- -- 58
2019-03-25 12:00:00 19.3 44 Este 58 Este 0 -- -- 60
2019-03-25 11:00:00 18.5 40 Este 58 Este 0 -- -- 64
2019-03-25 10:00:00 17.4 36 Este 56 Este 0 -- -- 69
2019-03-25 09:00:00 15.8 30 Este 45 Este 0 -- -- 77
2019-03-25 08:00:00 14.5 30 Este 41 Este 0 -- -- 79
2019-03-25 07:00:00 14.2 18 Sudeste 33 Este 0 -- -- 80
2019-03-25 06:00:00 14.4 25 Este 38 Este 0 -- -- 79
2019-03-25 05:00:00 14.5 25 Este 37 Este 0 -- -- 77
2019-03-25 04:00:00 14.4 25 Este 36 Este 0 -- -- 80
2019-03-25 03:00:00 14.2 19 Este 38 Este 0 -- -- 82
2019-03-25 02:00:00 13.8 21 Este 39 Este 0 -- -- 85
2019-03-25 01:00:00 14.2 30 Este 41 Este 0 -- -- 83
2019-03-25 00:00:00 14.3 20 Este 38 Este 0 -- -- 78
2019-03-24 23:00:00 14.8 23 Este 35 Sudeste 0 -- -- 74
2019-03-24 22:00:00 14.4 23 Sudeste 33 Sudeste 0 -- -- 75
2019-03-24 21:00:00 14.6 18 Sudeste 42 Este 0 -- -- 72
2019-03-24 20:00:00 15.5 24 Sudeste 45 Sudeste 0 -- -- 68
2019-03-24 19:00:00 16.7 31 Este 53 Este 0 -- -- 67
2019-03-24 18:00:00 18 38 Este 60 Sudeste 0 -- -- 63
2019-03-24 17:00:00 18.5 45 Este 66 Este 0 -- -- 62
2019-03-24 16:00:00 18.8 50 Este 76 Este 0 -- -- 63
2019-03-24 15:00:00 19.4 49 Este 70 Sudeste 0 -- -- 61
2019-03-24 14:00:00 19.2 48 Este 71 Este 0 -- -- 67
2019-03-24 13:00:00 18.4 54 Este 77 Este 0 -- -- 69
2019-03-24 12:00:00 18.2 48 Este 71 Este 0 -- -- 72
2019-03-24 11:00:00 17.7 46 Este 70 Este 0 -- -- 73
2019-03-24 10:00:00 16.7 41 Este 62 Sudeste 0 -- -- 76
2019-03-24 09:00:00 15.5 44 Este 64 Este 0 -- -- 78
2019-03-24 08:00:00 14.3 40 Este 60 Este 0 -- -- 82
2019-03-24 07:00:00 14 35 Este 55 Sudeste 0 -- -- 81
2019-03-24 06:00:00 14.2 31 Este 53 Este 0 -- -- 80
2019-03-24 05:00:00 14.2 36 Este 57 Este 0 -- -- 81
2019-03-24 04:00:00 14 37 Este 62 Sudeste 0 -- -- 80
2019-03-24 03:00:00 14.2 35 Este 59 Este 0 -- -- 80
2019-03-24 02:00:00 14.3 40 Este 70 Este 0 -- -- 79
2019-03-24 01:00:00 14.4 49 Este 74 Este 0 -- -- 77
2019-03-24 00:00:00 14.4 37 Este 62 Este 0 -- -- 77
2019-03-23 23:00:00 14.6 42 Este 67 Este 0 -- -- 75
2019-03-23 22:00:00 14.5 48 Este 70 Este 0 -- -- 75
2019-03-23 21:00:00 14.5 48 Este 72 Este 0 -- -- 74
2019-03-23 20:00:00 14.6 41 Este 68 Este 0 -- -- 73
2019-03-23 19:00:00 15.6 45 Este 68 Este 0 -- -- 69
2019-03-23 18:00:00 17 46 Este 69 Este 0 -- -- 60
2019-03-23 17:00:00 17.9 50 Este 80 Este 0 -- -- 55
2019-03-23 16:00:00 18.3 53 Este 81 Este 0 -- -- 58
2019-03-23 15:00:00 18.6 58 Este 85 Este 0 -- -- 57
2019-03-23 14:00:00 18.9 53 Este 78 Sudeste 0 -- -- 55
2019-03-23 13:00:00 18.3 58 Este 77 Sudeste 0 -- -- 60
2019-03-23 12:00:00 17.8 49 Este 81 Sudeste 0 -- -- 65
2019-03-23 11:00:00 17.5 49 Este 77 Este 0 -- -- 66
2019-03-23 10:00:00 16.3 46 Este 77 Este 0 -- -- 69
2019-03-23 09:00:00 15.2 33 Este 58 Este 0 -- -- 75
2019-03-23 08:00:00 14.1 32 Este 54 Este 0 -- -- 78
2019-03-23 07:00:00 13.6 31 Este 62 Este 0 -- -- 79
2019-03-23 06:00:00 13.5 33 Este 60 Este 0 -- -- 78
2019-03-23 05:00:00 13.5 39 Este 53 Este 0 -- -- 76
2019-03-23 04:00:00 13.3 29 Este 51 Este 0 -- -- 77
2019-03-23 03:00:00 13.4 41 Este 61 Este 0 -- -- 76
2019-03-23 02:00:00 13.3 41 Este 61 Sudeste 0 -- -- 75
2019-03-23 01:00:00 13.1 31 Este 51 Este 0 -- -- 77
2019-03-23 00:00:00 13.1 35 Este 50 Este 0 -- -- 78
2019-03-22 23:00:00 13.4 36 Este 53 Este 0 -- -- 75
2019-03-22 22:00:00 13.3 28 Este 44 Este 0 -- -- 76
2019-03-22 21:00:00 13.2 30 Este 40 Este 0 -- -- 76
2019-03-22 20:00:00 13.9 20 Sudeste 39 Este 0 -- -- 71
2019-03-22 19:00:00 15 24 Este 57 Este 0 -- -- 66
2019-03-22 18:00:00 16.1 41 Este 60 Este 0 -- -- 64
2019-03-22 17:00:00 16.8 39 Este 59 Este 0 -- -- 61
2019-03-22 16:00:00 17.1 42 Este 63 Este 0 -- -- 61
2019-03-22 15:00:00 17.4 42 Este 63 Este 0 -- -- 62
2019-03-22 14:00:00 17.1 43 Este 62 Este 0 -- -- 61
2019-03-22 13:00:00 17.7 36 Este 55 Este 0 -- -- 59
2019-03-22 12:00:00 15.9 42 Este 63 Este 0 -- -- 60
2019-03-22 11:00:00 16 42 Este 60 Este 0 -- -- 60
2019-03-22 10:00:00 14.9 42 Este 57 Este 0 -- -- 65
2019-03-22 09:00:00 14.1 27 Este 42 Este 0 -- -- 70
2019-03-22 08:00:00 12.2 18 Este 33 Este 0 -- -- 77
2019-03-22 07:00:00 11.5 14 Este 43 Este 0 -- -- 79
2019-03-22 06:00:00 11.9 22 Este 39 Este 0 -- -- 77
2019-03-22 05:00:00 12.4 28 Este 39 Este 0 -- -- 75
2019-03-22 04:00:00 12.3 24 Este 36 Este 0 -- -- 74
2019-03-22 03:00:00 12.3 21 Este 45 Este 0 -- -- 74
2019-03-22 02:00:00 12.1 20 Este 38 Este 0 -- -- 74
2019-03-22 01:00:00 12.3 31 Este 45 Este 0 -- -- 75
2019-03-22 00:00:00 12.1 28 Este 48 Este 0 -- -- 76
2019-03-21 23:00:00 12.2 30 Este 41 Este 0 -- -- 77
2019-03-21 22:00:00 11.6 18 Este 43 Este 0 -- -- 80
2019-03-21 21:00:00 12.3 29 Este 41 Este 0 -- -- 76
2019-03-21 20:00:00 12.8 25 Este 45 Este 0 -- -- 68
2019-03-21 19:00:00 14.2 34 Este 50 Este 0 -- -- 59
2019-03-21 18:00:00 15.5 35 Este 51 Este 0 -- -- 54
2019-03-21 17:00:00 16.1 43 Este 56 Este 0 -- -- 51
2019-03-21 16:00:00 16.5 41 Este 57 Este 0 -- -- 46
2019-03-21 15:00:00 16.7 39 Este 57 Este 0 -- -- 52
2019-03-21 14:00:00 16 41 Este 63 Este 0 -- -- 55
2019-03-21 13:00:00 16 48 Este 69 Este 0 -- -- 54
2019-03-21 12:00:00 15.8 43 Este 56 Este 0 -- -- 50
2019-03-21 11:00:00 15.6 42 Este 57 Este 0 -- -- 54
2019-03-21 10:00:00 14.6 32 Este 50 Este 0 -- -- 59
2019-03-21 09:00:00 13 22 Este 33 Este 0 -- -- 65
2019-03-21 08:00:00 10.9 19 Este 33 Este 0 -- -- 78
2019-03-21 07:00:00 9.1 6 Este 24 Este 0 -- -- 86
2019-03-21 06:00:00 10 17 Este 31 Este 0 -- -- 84
2019-03-21 05:00:00 10.7 22 Este 33 Este 0 -- -- 84
2019-03-21 04:00:00 10.8 23 Este 37 Este 0 -- -- 85
2019-03-21 03:00:00 11.2 29 Este 44 Este 0 -- -- 87
2019-03-21 02:00:00 11.9 30 Este 39 Este 0 -- -- 78
2019-03-21 01:00:00 11.6 19 Este 44 Este 0 -- -- 74
2019-03-21 00:00:00 12.2 28 Este 48 Este 0 -- -- 74
2019-03-20 23:00:00 12.5 34 Este 48 Este 0 -- -- 73
2019-03-20 22:00:00 12.6 31 Este 44 Este 0 -- -- 74
2019-03-20 21:00:00 12.4 26 Este 43 Este 0 -- -- 74
2019-03-20 20:00:00 12.9 26 Este 55 Este 0 -- -- 70
2019-03-20 19:00:00 14.4 40 Este 54 Sudeste 0 -- -- 60
2019-03-20 18:00:00 15.7 37 Este 53 Sudeste 0 -- -- 58
2019-03-20 17:00:00 15.7 40 Este 61 Este 0 -- -- 56
2019-03-20 16:00:00 16.2 43 Este 61 Este 0 -- -- 56
2019-03-20 15:00:00 17.2 42 Este 59 Sudeste 0 -- -- 57
2019-03-20 14:00:00 17.3 39 Este 59 Este 0 -- -- 57
2019-03-20 13:00:00 17.3 39 Este 59 Este 0 -- -- 53
2019-03-20 12:00:00 16.8 42 Este 57 Este 0 -- -- 55
2019-03-20 11:00:00 16.2 42 Este 57 Este 0 -- -- 58
2019-03-20 10:00:00 15.5 37 Este 48 Este 0 -- -- 63
2019-03-20 09:00:00 14.2 30 Este 43 Sudeste 0 -- -- 73
2019-03-20 08:00:00 12.4 22 Este 35 Sudeste 0 -- -- 79
2019-03-20 07:00:00 11.9 22 Este 32 Sudeste 0 -- -- 82
2019-03-20 06:00:00 12.3 19 Sudeste 39 Este 0 -- -- 79
2019-03-20 05:00:00 12.7 24 Este 35 Sudeste 0 -- -- 83
2019-03-20 04:00:00 12.3 20 Este 30 Este 0 -- -- 87
2019-03-20 03:00:00 12.5 19 Este 38 Este 0 -- -- 86
2019-03-20 02:00:00 11.9 7 Este 11 Sudeste 0 -- -- 90
2019-03-20 01:00:00 11.7 7 Sudeste 11 Sudeste 0 -- -- 91
2019-03-20 00:00:00 11.4 8 Sudeste 16 Sudeste 0 -- -- 89
2019-03-19 23:00:00 12.4 10 Sudeste 21 Sudeste 0 -- -- 72
2019-03-19 22:00:00 12.7 2 Nordeste 14 Nordeste 0 -- -- 51
2019-03-19 21:00:00 12.9 3 Norte 12 Nordeste 0 -- -- 55
2019-03-19 20:00:00 17.2 3 Nordeste 21 Nordeste 0 -- -- 42
2019-03-19 19:00:00 19.6 8 Norte 31 Nordeste 0 -- -- 35
2019-03-19 18:00:00 21.1 11 Nordeste 28 Norte 0 -- -- 31
2019-03-19 17:00:00 22.3 9 Norte 28 Nordeste 0 -- -- 30
2019-03-19 16:00:00 22.5 10 Norte 25 Nordeste 0 -- -- 38
2019-03-19 15:00:00 21.6 8 Noroeste 27 Nordeste 0 -- -- 44
2019-03-19 14:00:00 20.9 11 Nordeste 22 Nordeste 0 -- -- 53
2019-03-19 13:00:00 20 10 Norte 22 Nordeste 0 -- -- 59
2019-03-19 12:00:00 18.7 6 Norte 14 Nordeste 0 -- -- 64
2019-03-19 11:00:00 17.2 8 Nordeste 18 Nordeste 0 -- -- 73
2019-03-19 10:00:00 15.9 8 Nordeste 13 Nordeste 0 -- -- 83
2019-03-19 09:00:00 12.5 4 Nordeste 9 Nordeste 0 -- -- 100
2019-03-19 08:00:00 9.5 3 Oeste 6 Oeste 0 -- -- 98
2019-03-19 07:00:00 9.3 3 Oeste 5 Oeste 0 -- -- 97
2019-03-19 06:00:00 9.8 0 Calma 5 Este 0 -- -- 94
2019-03-19 05:00:00 10.8 0 Calma 7 Sudeste 0 -- -- 93
2019-03-19 04:00:00 11.7 2 Sur 12 Este 0 -- -- 94
2019-03-19 03:00:00 11.7 5 Sudeste 10 Este 0 -- -- 92
2019-03-19 02:00:00 12.6 8 Sudeste 20 Sudeste 0 -- -- 90
2019-03-19 01:00:00 13.4 15 Sudeste 26 Sudeste 0 -- -- 89
2019-03-19 00:00:00 13.4 11 Sudeste 19 Sudeste 0 -- -- 88